sensor_id;sensor_type;location;lat;lon;timestamp;temperature;humidity
2300;DHT22;1158;48.750;9.078;2022-11-15T00:00:47;6.60;99.90
2300;DHT22;1158;48.750;9.078;2022-11-15T00:03:15;6.50;99.90
2300;DHT22;1158;48.750;9.078;2022-11-15T00:05:42;6.40;99.90
2300;DHT22;1158;48.750;9.078;2022-11-15T00:08:08;6.40;99.90
2300;DHT22;1158;48.750;9.078;2022-11-15T00:10:36;6.40;99.90
2300;DHT22;1158;48.750;9.078;2022-11-15T00:13:05;6.50;99.90
2300;DHT22;1158;48.750;9.078;2022-11-15T00:15:34;6.60;99.90
2300;DHT22;1158;48.750;9.078;2022-11-15T00:18:03;6.70;99.90
2300;DHT22;1158;48.750;9.078;2022-11-15T00:20:30;6.80;99.90
2300;DHT22;1158;48.750;9.078;2022-11-15T00:22:56;7.00;99.90
2300;DHT22;1158;48.750;9.078;2022-11-15T00:25:23;7.00;99.90
2300;DHT22;1158;48.750;9.078;2022-11-15T00:27:50;7.10;99.90
2300;DHT22;1158;48.750;9.078;2022-11-15T00:30:17;7.20;99.90
2300;DHT22;1158;48.750;9.078;2022-11-15T00:32:44;7.20;99.90
2300;DHT22;1158;48.750;9.078;2022-11-15T00:35:12;7.10;99.90
2300;DHT22;1158;48.750;9.078;2022-11-15T00:37:39;7.10;99.90
2300;DHT22;1158;48.750;9.078;2022-11-15T00:40:07;7.10;99.90
2300;DHT22;1158;48.750;9.078;2022-11-15T00:42:34;7.20;99.90
2300;DHT22;1158;48.750;9.078;2022-11-15T00:45:01;7.20;99.90
2300;DHT22;1158;48.750;9.078;2022-11-15T00:47:27;7.20;99.90
2300;DHT22;1158;48.750;9.078;2022-11-15T00:49:54;7.20;99.90
2300;DHT22;1158;48.750;9.078;2022-11-15T00:52:22;7.40;99.90
2300;DHT22;1158;48.750;9.078;2022-11-15T00:54:49;7.30;99.90
2300;DHT22;1158;48.750;9.078;2022-11-15T00:57:16;7.20;99.90
2300;DHT22;1158;48.750;9.078;2022-11-15T00:59:43;7.10;99.90
2300;DHT22;1158;48.750;9.078;2022-11-15T01:02:09;7.10;99.90
2300;DHT22;1158;48.750;9.078;2022-11-15T01:04:36;7.20;99.90
2300;DHT22;1158;48.750;9.078;2022-11-15T01:07:03;7.10;99.90
2300;DHT22;1158;48.750;9.078;2022-11-15T01:09:31;7.00;99.90
2300;DHT22;1158;48.750;9.078;2022-11-15T01:11:57;6.90;99.90
2300;DHT22;1158;48.750;9.078;2022-11-15T01:14:24;6.90;99.90
2300;DHT22;1158;48.750;9.078;2022-11-15T01:16:51;6.80;99.90
2300;DHT22;1158;48.750;9.078;2022-11-15T01:19:18;6.90;99.90
2300;DHT22;1158;48.750;9.078;2022-11-15T01:21:45;6.80;99.90
2300;DHT22;1158;48.750;9.078;2022-11-15T01:24:12;6.70;99.90
2300;DHT22;1158;48.750;9.078;2022-11-15T01:26:41;6.40;99.90
2300;DHT22;1158;48.750;9.078;2022-11-15T01:29:08;6.30;99.90
2300;DHT22;1158;48.750;9.078;2022-11-15T01:31:34;6.40;99.90
2300;DHT22;1158;48.750;9.078;2022-11-15T01:34:01;6.40;99.90
2300;DHT22;1158;48.750;9.078;2022-11-15T01:36:28;6.50;99.90
2300;DHT22;1158;48.750;9.078;2022-11-15T01:38:56;6.60;99.90
2300;DHT22;1158;48.750;9.078;2022-11-15T01:41:24;6.80;99.90
2300;DHT22;1158;48.750;9.078;2022-11-15T01:43:54;6.90;99.90
2300;DHT22;1158;48.750;9.078;2022-11-15T01:46:29;7.10;99.90
2300;DHT22;1158;48.750;9.078;2022-11-15T01:49:00;7.10;99.90
2300;DHT22;1158;48.750;9.078;2022-11-15T01:51:29;7.00;99.90
2300;DHT22;1158;48.750;9.078;2022-11-15T01:54:00;7.10;99.90
2300;DHT22;1158;48.750;9.078;2022-11-15T01:56:31;7.20;99.90
2300;DHT22;1158;48.750;9.078;2022-11-15T01:59:03;7.20;99.90
2300;DHT22;1158;48.750;9.078;2022-11-15T02:01:31;7.30;99.90
2300;DHT22;1158;48.750;9.078;2022-11-15T02:04:01;7.10;99.90
2300;DHT22;1158;48.750;9.078;2022-11-15T02:06:30;7.10;99.90
2300;DHT22;1158;48.750;9.078;2022-11-15T02:08:57;6.90;99.90
2300;DHT22;1158;48.750;9.078;2022-11-15T02:11:25;6.80;99.90
2300;DHT22;1158;48.750;9.078;2022-11-15T02:13:52;6.60;99.90
2300;DHT22;1158;48.750;9.078;2022-11-15T02:16:28;6.70;99.90
2300;DHT22;1158;48.750;9.078;2022-11-15T02:19:02;6.60;99.90
2300;DHT22;1158;48.750;9.078;2022-11-15T02:21:36;6.50;99.90
2300;DHT22;1158;48.750;9.078;2022-11-15T02:24:29;6.50;99.90
2300;DHT22;1158;48.750;9.078;2022-11-15T02:27:35;6.40;99.90
2300;DHT22;1158;48.750;9.078;2022-11-15T02:30:23;6.30;99.90
2300;DHT22;1158;48.750;9.078;2022-11-15T02:32:53;6.10;99.90
2300;DHT22;1158;48.750;9.078;2022-11-15T02:35:29;6.00;99.90
2300;DHT22;1158;48.750;9.078;2022-11-15T02:37:58;5.90;99.90
2300;DHT22;1158;48.750;9.078;2022-11-15T02:40:33;5.90;99.90
2300;DHT22;1158;48.750;9.078;2022-11-15T02:43:07;5.80;99.90
2300;DHT22;1158;48.750;9.078;2022-11-15T02:45:58;5.80;99.90
2300;DHT22;1158;48.750;9.078;2022-11-15T02:48:26;5.90;99.90
2300;DHT22;1158;48.750;9.078;2022-11-15T02:50:53;5.80;99.90
2300;DHT22;1158;48.750;9.078;2022-11-15T02:53:24;5.80;99.90
2300;DHT22;1158;48.750;9.078;2022-11-15T02:55:51;5.80;99.90
2300;DHT22;1158;48.750;9.078;2022-11-15T02:58:40;5.70;99.90
2300;DHT22;1158;48.750;9.078;2022-11-15T03:01:22;5.60;99.90
2300;DHT22;1158;48.750;9.078;2022-11-15T03:03:59;5.50;99.90
2300;DHT22;1158;48.750;9.078;2022-11-15T03:06:35;5.50;99.90
2300;DHT22;1158;48.750;9.078;2022-11-15T03:09:07;5.40;99.90
2300;DHT22;1158;48.750;9.078;2022-11-15T03:11:38;5.30;99.90
2300;DHT22;1158;48.750;9.078;2022-11-15T03:14:14;5.30;99.90
2300;DHT22;1158;48.750;9.078;2022-11-15T03:16:48;5.30;99.90
2300;DHT22;1158;48.750;9.078;2022-11-15T03:19:20;5.30;99.90
2300;DHT22;1158;48.750;9.078;2022-11-15T03:21:49;5.30;99.90
2300;DHT22;1158;48.750;9.078;2022-11-15T03:24:19;5.20;99.90
2300;DHT22;1158;48.750;9.078;2022-11-15T03:26:48;5.20;99.90
2300;DHT22;1158;48.750;9.078;2022-11-15T03:29:19;5.20;99.90
2300;DHT22;1158;48.750;9.078;2022-11-15T03:31:53;5.30;99.90
2300;DHT22;1158;48.750;9.078;2022-11-15T03:34:25;5.30;99.90
2300;DHT22;1158;48.750;9.078;2022-11-15T03:36:54;5.30;99.90
2300;DHT22;1158;48.750;9.078;2022-11-15T03:39:21;5.30;99.90
2300;DHT22;1158;48.750;9.078;2022-11-15T03:41:56;5.30;99.90
2300;DHT22;1158;48.750;9.078;2022-11-15T03:44:36;5.40;99.90
2300;DHT22;1158;48.750;9.078;2022-11-15T03:47:11;5.30;99.90
2300;DHT22;1158;48.750;9.078;2022-11-15T03:49:42;5.30;99.90
2300;DHT22;1158;48.750;9.078;2022-11-15T03:52:11;5.20;99.90
2300;DHT22;1158;48.750;9.078;2022-11-15T03:54:47;5.20;99.90
2300;DHT22;1158;48.750;9.078;2022-11-15T03:57:14;5.20;99.90
2300;DHT22;1158;48.750;9.078;2022-11-15T03:59:41;5.20;99.90
2300;DHT22;1158;48.750;9.078;2022-11-15T04:02:09;5.30;99.90
2300;DHT22;1158;48.750;9.078;2022-11-15T04:04:36;5.30;99.90
2300;DHT22;1158;48.750;9.078;2022-11-15T04:07:02;5.30;99.90
2300;DHT22;1158;48.750;9.078;2022-11-15T04:09:29;5.30;99.90
2300;DHT22;1158;48.750;9.078;2022-11-15T04:11:56;5.30;99.90
2300;DHT22;1158;48.750;9.078;2022-11-15T04:14:22;5.30;99.90
2300;DHT22;1158;48.750;9.078;2022-11-15T04:16:49;5.30;99.90
2300;DHT22;1158;48.750;9.078;2022-11-15T04:19:17;5.30;99.90
2300;DHT22;1158;48.750;9.078;2022-11-15T04:22:02;5.30;99.90
2300;DHT22;1158;48.750;9.078;2022-11-15T04:24:46;5.30;99.90
2300;DHT22;1158;48.750;9.078;2022-11-15T04:27:12;5.30;99.90
2300;DHT22;1158;48.750;9.078;2022-11-15T04:29:39;5.30;99.90
2300;DHT22;1158;48.750;9.078;2022-11-15T04:32:06;5.20;99.90
2300;DHT22;1158;48.750;9.078;2022-11-15T04:34:34;5.20;99.90
2300;DHT22;1158;48.750;9.078;2022-11-15T04:37:01;5.20;99.90
2300;DHT22;1158;48.750;9.078;2022-11-15T04:39:42;5.10;99.90
2300;DHT22;1158;48.750;9.078;2022-11-15T04:42:09;5.10;99.90
2300;DHT22;1158;48.750;9.078;2022-11-15T04:44:36;5.10;99.90
2300;DHT22;1158;48.750;9.078;2022-11-15T04:47:03;5.10;99.90
2300;DHT22;1158;48.750;9.078;2022-11-15T04:49:30;5.10;99.90
2300;DHT22;1158;48.750;9.078;2022-11-15T04:51:58;5.10;99.90
2300;DHT22;1158;48.750;9.078;2022-11-15T04:54:25;5.10;99.90
2300;DHT22;1158;48.750;9.078;2022-11-15T04:56:51;5.00;99.90
2300;DHT22;1158;48.750;9.078;2022-11-15T04:59:18;5.00;99.90
2300;DHT22;1158;48.750;9.078;2022-11-15T05:01:45;4.90;99.90
2300;DHT22;1158;48.750;9.078;2022-11-15T05:04:12;4.90;99.90
2300;DHT22;1158;48.750;9.078;2022-11-15T05:06:50;4.90;99.90
2300;DHT22;1158;48.750;9.078;2022-11-15T05:09:19;4.80;99.90
2300;DHT22;1158;48.750;9.078;2022-11-15T05:11:46;4.80;99.90
2300;DHT22;1158;48.750;9.078;2022-11-15T05:14:13;4.70;99.90
2300;DHT22;1158;48.750;9.078;2022-11-15T05:16:40;4.70;99.90
2300;DHT22;1158;48.750;9.078;2022-11-15T05:19:07;4.70;99.90
2300;DHT22;1158;48.750;9.078;2022-11-15T05:21:35;4.70;99.90
2300;DHT22;1158;48.750;9.078;2022-11-15T05:24:02;4.70;99.90
2300;DHT22;1158;48.750;9.078;2022-11-15T05:26:30;4.60;99.90
2300;DHT22;1158;48.750;9.078;2022-11-15T05:28:58;4.70;99.90
2300;DHT22;1158;48.750;9.078;2022-11-15T05:31:26;4.70;99.90
2300;DHT22;1158;48.750;9.078;2022-11-15T05:33:54;4.60;99.90
2300;DHT22;1158;48.750;9.078;2022-11-15T05:36:27;4.70;99.90
2300;DHT22;1158;48.750;9.078;2022-11-15T05:38:54;4.70;99.90
2300;DHT22;1158;48.750;9.078;2022-11-15T05:41:25;4.70;99.90
2300;DHT22;1158;48.750;9.078;2022-11-15T05:43:54;4.70;99.90
2300;DHT22;1158;48.750;9.078;2022-11-15T05:46:22;4.60;99.90
2300;DHT22;1158;48.750;9.078;2022-11-15T05:48:50;4.70;99.90
2300;DHT22;1158;48.750;9.078;2022-11-15T05:51:18;4.70;99.90
2300;DHT22;1158;48.750;9.078;2022-11-15T05:53:47;4.60;99.90
2300;DHT22;1158;48.750;9.078;2022-11-15T05:56:14;4.60;99.90
2300;DHT22;1158;48.750;9.078;2022-11-15T05:58:42;4.50;99.90
2300;DHT22;1158;48.750;9.078;2022-11-15T06:01:10;4.50;99.90
2300;DHT22;1158;48.750;9.078;2022-11-15T06:03:37;4.50;99.90
2300;DHT22;1158;48.750;9.078;2022-11-15T06:06:04;4.50;99.90
2300;DHT22;1158;48.750;9.078;2022-11-15T06:08:31;4.50;99.90
2300;DHT22;1158;48.750;9.078;2022-11-15T06:11:03;4.40;99.90
2300;DHT22;1158;48.750;9.078;2022-11-15T06:13:30;4.40;99.90
2300;DHT22;1158;48.750;9.078;2022-11-15T06:15:57;4.30;99.90
2300;DHT22;1158;48.750;9.078;2022-11-15T06:18:25;4.30;99.90
2300;DHT22;1158;48.750;9.078;2022-11-15T06:20:52;4.30;99.90
2300;DHT22;1158;48.750;9.078;2022-11-15T06:23:18;4.30;99.90
2300;DHT22;1158;48.750;9.078;2022-11-15T06:25:45;4.30;99.90
2300;DHT22;1158;48.750;9.078;2022-11-15T06:28:12;4.30;99.90
2300;DHT22;1158;48.750;9.078;2022-11-15T06:30:39;4.40;99.90
2300;DHT22;1158;48.750;9.078;2022-11-15T06:33:05;4.40;99.90
2300;DHT22;1158;48.750;9.078;2022-11-15T06:35:36;4.50;99.90
2300;DHT22;1158;48.750;9.078;2022-11-15T06:38:04;4.50;99.90
2300;DHT22;1158;48.750;9.078;2022-11-15T06:40:34;4.50;99.90
2300;DHT22;1158;48.750;9.078;2022-11-15T06:43:02;4.60;99.90
2300;DHT22;1158;48.750;9.078;2022-11-15T06:45:29;4.60;99.90
2300;DHT22;1158;48.750;9.078;2022-11-15T06:47:55;4.70;99.90
2300;DHT22;1158;48.750;9.078;2022-11-15T06:50:22;4.80;99.90
2300;DHT22;1158;48.750;9.078;2022-11-15T06:52:51;4.80;99.90
2300;DHT22;1158;48.750;9.078;2022-11-15T06:55:17;4.90;99.90
2300;DHT22;1158;48.750;9.078;2022-11-15T06:57:48;5.00;99.90
2300;DHT22;1158;48.750;9.078;2022-11-15T07:00:16;5.10;99.90
2300;DHT22;1158;48.750;9.078;2022-11-15T07:02:43;5.30;99.90
2300;DHT22;1158;48.750;9.078;2022-11-15T07:05:10;5.40;99.90
2300;DHT22;1158;48.750;9.078;2022-11-15T07:07:37;5.50;99.90
2300;DHT22;1158;48.750;9.078;2022-11-15T07:10:07;5.60;99.90
2300;DHT22;1158;48.750;9.078;2022-11-15T07:12:34;5.70;99.90
2300;DHT22;1158;48.750;9.078;2022-11-15T07:15:01;5.90;99.90
2300;DHT22;1158;48.750;9.078;2022-11-15T07:17:28;5.90;99.90
2300;DHT22;1158;48.750;9.078;2022-11-15T07:19:54;6.10;99.90
2300;DHT22;1158;48.750;9.078;2022-11-15T07:22:21;6.10;99.90
2300;DHT22;1158;48.750;9.078;2022-11-15T07:24:48;6.30;99.90
2300;DHT22;1158;48.750;9.078;2022-11-15T07:27:16;6.50;99.90
2300;DHT22;1158;48.750;9.078;2022-11-15T07:29:43;6.80;99.90
2300;DHT22;1158;48.750;9.078;2022-11-15T07:32:09;7.10;99.90
2300;DHT22;1158;48.750;9.078;2022-11-15T07:34:36;7.40;99.90
2300;DHT22;1158;48.750;9.078;2022-11-15T07:37:03;8.50;99.90
2300;DHT22;1158;48.750;9.078;2022-11-15T07:39:30;9.30;99.90
2300;DHT22;1158;48.750;9.078;2022-11-15T07:41:56;10.70;99.90
2300;DHT22;1158;48.750;9.078;2022-11-15T07:44:38;11.50;99.90
2300;DHT22;1158;48.750;9.078;2022-11-15T07:47:05;11.40;99.90
2300;DHT22;1158;48.750;9.078;2022-11-15T07:49:32;11.40;99.90
2300;DHT22;1158;48.750;9.078;2022-11-15T07:51:59;11.20;99.90
2300;DHT22;1158;48.750;9.078;2022-11-15T07:54:25;10.70;99.90
2300;DHT22;1158;48.750;9.078;2022-11-15T07:56:52;11.30;99.90
2300;DHT22;1158;48.750;9.078;2022-11-15T07:59:19;11.50;99.90
2300;DHT22;1158;48.750;9.078;2022-11-15T08:01:47;11.50;99.90
2300;DHT22;1158;48.750;9.078;2022-11-15T08:04:14;11.40;99.90
2300;DHT22;1158;48.750;9.078;2022-11-15T08:06:41;11.30;99.90
2300;DHT22;1158;48.750;9.078;2022-11-15T08:09:07;11.40;99.90
2300;DHT22;1158;48.750;9.078;2022-11-15T08:11:34;11.50;99.90
2300;DHT22;1158;48.750;9.078;2022-11-15T08:14:01;11.60;99.90
2300;DHT22;1158;48.750;9.078;2022-11-15T08:16:27;11.80;99.90
2300;DHT22;1158;48.750;9.078;2022-11-15T08:18:56;12.50;99.90
2300;DHT22;1158;48.750;9.078;2022-11-15T08:21:22;13.50;99.90
2300;DHT22;1158;48.750;9.078;2022-11-15T08:23:49;14.50;99.90
2300;DHT22;1158;48.750;9.078;2022-11-15T08:26:17;15.10;99.90
2300;DHT22;1158;48.750;9.078;2022-11-15T08:28:43;15.20;99.90
2300;DHT22;1158;48.750;9.078;2022-11-15T08:31:13;15.40;99.90
2300;DHT22;1158;48.750;9.078;2022-11-15T08:33:40;15.60;99.90
2300;DHT22;1158;48.750;9.078;2022-11-15T08:36:13;16.00;99.90
2300;DHT22;1158;48.750;9.078;2022-11-15T08:38:40;16.40;99.90
2300;DHT22;1158;48.750;9.078;2022-11-15T08:41:11;16.90;99.90
2300;DHT22;1158;48.750;9.078;2022-11-15T08:43:38;17.60;99.90
2300;DHT22;1158;48.750;9.078;2022-11-15T08:46:05;18.30;99.90
2300;DHT22;1158;48.750;9.078;2022-11-15T08:48:32;19.10;99.90
2300;DHT22;1158;48.750;9.078;2022-11-15T08:50:59;18.80;99.90
2300;DHT22;1158;48.750;9.078;2022-11-15T08:53:27;18.70;99.90
2300;DHT22;1158;48.750;9.078;2022-11-15T08:55:53;18.60;99.90
2300;DHT22;1158;48.750;9.078;2022-11-15T08:58:20;18.80;99.90
2300;DHT22;1158;48.750;9.078;2022-11-15T09:00:47;19.20;99.90
2300;DHT22;1158;48.750;9.078;2022-11-15T09:03:14;19.00;99.90
2300;DHT22;1158;48.750;9.078;2022-11-15T09:05:40;18.40;99.90
2300;DHT22;1158;48.750;9.078;2022-11-15T09:08:07;18.20;99.90
2300;DHT22;1158;48.750;9.078;2022-11-15T09:10:35;17.90;99.90
2300;DHT22;1158;48.750;9.078;2022-11-15T09:13:02;17.80;99.90
2300;DHT22;1158;48.750;9.078;2022-11-15T09:15:29;17.90;99.90
2300;DHT22;1158;48.750;9.078;2022-11-15T09:17:57;17.70;99.90
2300;DHT22;1158;48.750;9.078;2022-11-15T09:20:24;17.50;99.90
2300;DHT22;1158;48.750;9.078;2022-11-15T09:22:51;17.40;99.90
2300;DHT22;1158;48.750;9.078;2022-11-15T09:25:18;17.20;99.90
2300;DHT22;1158;48.750;9.078;2022-11-15T09:27:46;17.10;99.90
2300;DHT22;1158;48.750;9.078;2022-11-15T09:30:13;17.10;99.90
2300;DHT22;1158;48.750;9.078;2022-11-15T09:32:40;17.00;99.90
2300;DHT22;1158;48.750;9.078;2022-11-15T09:35:07;17.30;99.90
2300;DHT22;1158;48.750;9.078;2022-11-15T09:37:34;18.10;99.90
2300;DHT22;1158;48.750;9.078;2022-11-15T09:40:00;18.90;99.90
2300;DHT22;1158;48.750;9.078;2022-11-15T09:42:38;19.10;99.90
2300;DHT22;1158;48.750;9.078;2022-11-15T09:45:18;19.00;99.90
2300;DHT22;1158;48.750;9.078;2022-11-15T09:47:59;18.40;99.90
2300;DHT22;1158;48.750;9.078;2022-11-15T09:50:32;18.00;99.90
2300;DHT22;1158;48.750;9.078;2022-11-15T09:53:00;17.50;99.90
2300;DHT22;1158;48.750;9.078;2022-11-15T09:55:47;17.10;99.90
2300;DHT22;1158;48.750;9.078;2022-11-15T09:58:21;16.80;99.90
2300;DHT22;1158;48.750;9.078;2022-11-15T10:00:51;16.40;99.90
2300;DHT22;1158;48.750;9.078;2022-11-15T10:03:25;16.20;99.90
2300;DHT22;1158;48.750;9.078;2022-11-15T10:05:55;16.00;99.90
2300;DHT22;1158;48.750;9.078;2022-11-15T10:08:31;15.90;99.90
2300;DHT22;1158;48.750;9.078;2022-11-15T10:11:02;16.00;99.90
2300;DHT22;1158;48.750;9.078;2022-11-15T10:13:32;15.90;99.90
2300;DHT22;1158;48.750;9.078;2022-11-15T10:16:10;15.70;99.90
2300;DHT22;1158;48.750;9.078;2022-11-15T10:18:47;15.60;99.90
2300;DHT22;1158;48.750;9.078;2022-11-15T10:21:20;15.60;99.90
2300;DHT22;1158;48.750;9.078;2022-11-15T10:23:48;15.40;99.90
2300;DHT22;1158;48.750;9.078;2022-11-15T10:26:17;15.30;99.90
2300;DHT22;1158;48.750;9.078;2022-11-15T10:28:44;15.20;99.90
2300;DHT22;1158;48.750;9.078;2022-11-15T10:31:23;15.00;99.90
2300;DHT22;1158;48.750;9.078;2022-11-15T10:33:51;15.00;99.90
2300;DHT22;1158;48.750;9.078;2022-11-15T10:36:20;15.00;99.90
2300;DHT22;1158;48.750;9.078;2022-11-15T10:38:54;15.00;99.90
2300;DHT22;1158;48.750;9.078;2022-11-15T10:41:22;14.60;99.90
2300;DHT22;1158;48.750;9.078;2022-11-15T10:46:47;14.70;99.90
2300;DHT22;1158;48.750;9.078;2022-11-15T10:49:17;14.80;99.90
2300;DHT22;1158;48.750;9.078;2022-11-15T10:51:47;14.80;99.90
2300;DHT22;1158;48.750;9.078;2022-11-15T10:54:24;14.80;99.90
2300;DHT22;1158;48.750;9.078;2022-11-15T10:56:53;14.60;99.90
2300;DHT22;1158;48.750;9.078;2022-11-15T10:59:26;14.50;99.90
2300;DHT22;1158;48.750;9.078;2022-11-15T11:01:56;14.40;99.90
2300;DHT22;1158;48.750;9.078;2022-11-15T11:04:23;14.30;99.90
2300;DHT22;1158;48.750;9.078;2022-11-15T11:06:51;14.40;99.90
2300;DHT22;1158;48.750;9.078;2022-11-15T11:09:31;14.30;99.90
2300;DHT22;1158;48.750;9.078;2022-11-15T11:11:59;14.20;99.90
2300;DHT22;1158;48.750;9.078;2022-11-15T11:14:32;14.20;99.90
2300;DHT22;1158;48.750;9.078;2022-11-15T11:17:05;14.30;99.90
2300;DHT22;1158;48.750;9.078;2022-11-15T11:19:52;14.30;99.90
2300;DHT22;1158;48.750;9.078;2022-11-15T11:22:30;14.40;99.90
2300;DHT22;1158;48.750;9.078;2022-11-15T11:25:12;14.20;99.90
2300;DHT22;1158;48.750;9.078;2022-11-15T11:27:47;14.40;99.90
2300;DHT22;1158;48.750;9.078;2022-11-15T11:30:21;14.60;99.90
2300;DHT22;1158;48.750;9.078;2022-11-15T11:32:59;14.80;99.90
2300;DHT22;1158;48.750;9.078;2022-11-15T11:35:30;15.00;99.90
2300;DHT22;1158;48.750;9.078;2022-11-15T11:38:10;15.10;99.90
2300;DHT22;1158;48.750;9.078;2022-11-15T11:40:44;15.10;99.90
2300;DHT22;1158;48.750;9.078;2022-11-15T11:43:24;15.10;99.90
2300;DHT22;1158;48.750;9.078;2022-11-15T11:46:14;15.00;99.90
2300;DHT22;1158;48.750;9.078;2022-11-15T11:48:48;15.00;99.90
2300;DHT22;1158;48.750;9.078;2022-11-15T11:51:20;14.80;99.90
2300;DHT22;1158;48.750;9.078;2022-11-15T11:53:53;15.10;99.90
2300;DHT22;1158;48.750;9.078;2022-11-15T11:56:25;15.20;99.90
2300;DHT22;1158;48.750;9.078;2022-11-15T11:58:54;15.50;99.90
2300;DHT22;1158;48.750;9.078;2022-11-15T12:01:24;15.70;99.90
2300;DHT22;1158;48.750;9.078;2022-11-15T12:03:57;15.80;99.90
2300;DHT22;1158;48.750;9.078;2022-11-15T12:06:31;15.80;99.90
2300;DHT22;1158;48.750;9.078;2022-11-15T12:09:02;15.80;99.90
2300;DHT22;1158;48.750;9.078;2022-11-15T12:11:35;16.00;99.90
2300;DHT22;1158;48.750;9.078;2022-11-15T12:14:05;16.00;99.90
2300;DHT22;1158;48.750;9.078;2022-11-15T12:16:35;16.00;99.90
2300;DHT22;1158;48.750;9.078;2022-11-15T12:19:04;15.80;99.90
2300;DHT22;1158;48.750;9.078;2022-11-15T12:21:35;15.50;99.90
2300;DHT22;1158;48.750;9.078;2022-11-15T12:24:08;15.30;99.90
2300;DHT22;1158;48.750;9.078;2022-11-15T12:26:38;15.30;99.90
2300;DHT22;1158;48.750;9.078;2022-11-15T12:29:14;15.10;99.90
2300;DHT22;1158;48.750;9.078;2022-11-15T12:31:44;15.00;99.90
2300;DHT22;1158;48.750;9.078;2022-11-15T12:34:36;14.90;99.90
2300;DHT22;1158;48.750;9.078;2022-11-15T12:37:32;14.80;99.90
2300;DHT22;1158;48.750;9.078;2022-11-15T12:40:22;14.70;99.90
2300;DHT22;1158;48.750;9.078;2022-11-15T12:46:02;14.60;99.90
2300;DHT22;1158;48.750;9.078;2022-11-15T12:48:57;14.70;99.90
2300;DHT22;1158;48.750;9.078;2022-11-15T12:54:55;14.70;99.90
2300;DHT22;1158;48.750;9.078;2022-11-15T12:57:36;14.50;99.90
2300;DHT22;1158;48.750;9.078;2022-11-15T13:03:24;14.40;99.90
2300;DHT22;1158;48.750;9.078;2022-11-15T13:05:59;14.40;99.90
2300;DHT22;1158;48.750;9.078;2022-11-15T13:08:48;14.40;99.90
2300;DHT22;1158;48.750;9.078;2022-11-15T13:14:40;14.30;99.90
2300;DHT22;1158;48.750;9.078;2022-11-15T13:17:27;14.40;99.90
2300;DHT22;1158;48.750;9.078;2022-11-15T13:19:59;14.50;99.90
2300;DHT22;1158;48.750;9.078;2022-11-15T13:22:26;14.40;99.90
2300;DHT22;1158;48.750;9.078;2022-11-15T13:25:21;14.40;99.90
2300;DHT22;1158;48.750;9.078;2022-11-15T13:27:53;14.40;99.90
2300;DHT22;1158;48.750;9.078;2022-11-15T13:30:25;14.20;99.90
2300;DHT22;1158;48.750;9.078;2022-11-15T13:32:52;14.20;99.90
2300;DHT22;1158;48.750;9.078;2022-11-15T13:35:21;14.20;99.90
2300;DHT22;1158;48.750;9.078;2022-11-15T13:37:49;14.20;99.90
2300;DHT22;1158;48.750;9.078;2022-11-15T13:40:21;14.20;99.90
2300;DHT22;1158;48.750;9.078;2022-11-15T13:42:48;14.10;99.90
2300;DHT22;1158;48.750;9.078;2022-11-15T13:45:17;14.00;99.90
2300;DHT22;1158;48.750;9.078;2022-11-15T13:47:51;13.90;99.90
2300;DHT22;1158;48.750;9.078;2022-11-15T13:50:21;13.80;99.90
2300;DHT22;1158;48.750;9.078;2022-11-15T13:52:49;13.70;99.90
2300;DHT22;1158;48.750;9.078;2022-11-15T13:55:17;13.50;99.90
2300;DHT22;1158;48.750;9.078;2022-11-15T13:57:47;13.40;99.90
2300;DHT22;1158;48.750;9.078;2022-11-15T14:00:33;13.20;99.90
2300;DHT22;1158;48.750;9.078;2022-11-15T14:03:12;13.00;99.90
2300;DHT22;1158;48.750;9.078;2022-11-15T14:05:42;12.90;99.90
2300;DHT22;1158;48.750;9.078;2022-11-15T14:08:22;12.80;99.90
2300;DHT22;1158;48.750;9.078;2022-11-15T14:11:06;12.80;99.90
2300;DHT22;1158;48.750;9.078;2022-11-15T14:13:34;12.80;99.90
2300;DHT22;1158;48.750;9.078;2022-11-15T14:16:13;12.80;99.90
2300;DHT22;1158;48.750;9.078;2022-11-15T14:18:45;12.90;99.90
2300;DHT22;1158;48.750;9.078;2022-11-15T14:21:12;13.00;99.90
2300;DHT22;1158;48.750;9.078;2022-11-15T14:23:38;13.00;99.90
2300;DHT22;1158;48.750;9.078;2022-11-15T14:26:05;13.00;99.90
2300;DHT22;1158;48.750;9.078;2022-11-15T14:28:33;13.10;99.90
2300;DHT22;1158;48.750;9.078;2022-11-15T14:31:10;13.10;99.90
2300;DHT22;1158;48.750;9.078;2022-11-15T14:33:38;13.10;99.90
2300;DHT22;1158;48.750;9.078;2022-11-15T14:36:11;13.20;99.90
2300;DHT22;1158;48.750;9.078;2022-11-15T14:38:38;13.20;99.90
2300;DHT22;1158;48.750;9.078;2022-11-15T14:41:08;13.10;99.90
2300;DHT22;1158;48.750;9.078;2022-11-15T14:43:36;13.10;99.90
2300;DHT22;1158;48.750;9.078;2022-11-15T14:46:03;13.10;99.90
2300;DHT22;1158;48.750;9.078;2022-11-15T14:48:30;13.10;99.90
2300;DHT22;1158;48.750;9.078;2022-11-15T14:50:57;13.00;99.90
2300;DHT22;1158;48.750;9.078;2022-11-15T14:53:25;12.90;99.90
2300;DHT22;1158;48.750;9.078;2022-11-15T14:55:52;12.90;99.90
2300;DHT22;1158;48.750;9.078;2022-11-15T14:58:18;12.80;99.90
2300;DHT22;1158;48.750;9.078;2022-11-15T15:00:45;12.60;99.90
2300;DHT22;1158;48.750;9.078;2022-11-15T15:03:12;12.50;99.90
2300;DHT22;1158;48.750;9.078;2022-11-15T15:05:40;12.40;99.90
2300;DHT22;1158;48.750;9.078;2022-11-15T15:08:08;12.40;99.90
2300;DHT22;1158;48.750;9.078;2022-11-15T15:10:38;12.40;99.90
2300;DHT22;1158;48.750;9.078;2022-11-15T15:13:05;12.30;99.90
2300;DHT22;1158;48.750;9.078;2022-11-15T15:15:35;12.30;99.90
2300;DHT22;1158;48.750;9.078;2022-11-15T15:18:02;12.10;99.90
2300;DHT22;1158;48.750;9.078;2022-11-15T15:20:30;12.00;99.90
2300;DHT22;1158;48.750;9.078;2022-11-15T15:22:57;11.90;99.90
2300;DHT22;1158;48.750;9.078;2022-11-15T15:25:27;11.80;99.90
2300;DHT22;1158;48.750;9.078;2022-11-15T15:27:56;11.70;99.90
2300;DHT22;1158;48.750;9.078;2022-11-15T15:30:23;11.70;99.90
2300;DHT22;1158;48.750;9.078;2022-11-15T15:32:50;11.60;99.90
2300;DHT22;1158;48.750;9.078;2022-11-15T15:35:18;11.60;99.90
2300;DHT22;1158;48.750;9.078;2022-11-15T15:37:45;11.60;99.90
2300;DHT22;1158;48.750;9.078;2022-11-15T15:40:16;11.60;99.90
2300;DHT22;1158;48.750;9.078;2022-11-15T15:42:43;11.50;99.90
2300;DHT22;1158;48.750;9.078;2022-11-15T15:45:12;11.50;99.90
2300;DHT22;1158;48.750;9.078;2022-11-15T15:47:39;11.40;99.90
2300;DHT22;1158;48.750;9.078;2022-11-15T15:50:17;11.40;99.90
2300;DHT22;1158;48.750;9.078;2022-11-15T15:52:46;11.30;99.90
2300;DHT22;1158;48.750;9.078;2022-11-15T15:55:13;11.30;99.90
2300;DHT22;1158;48.750;9.078;2022-11-15T15:57:40;11.30;99.90
2300;DHT22;1158;48.750;9.078;2022-11-15T16:00:08;11.30;99.90
2300;DHT22;1158;48.750;9.078;2022-11-15T16:02:36;11.30;99.90
2300;DHT22;1158;48.750;9.078;2022-11-15T16:05:04;11.30;99.90
2300;DHT22;1158;48.750;9.078;2022-11-15T16:07:31;11.30;99.90
2300;DHT22;1158;48.750;9.078;2022-11-15T16:09:58;11.40;99.90
2300;DHT22;1158;48.750;9.078;2022-11-15T16:12:27;11.30;99.90
2300;DHT22;1158;48.750;9.078;2022-11-15T16:14:54;11.40;99.90
2300;DHT22;1158;48.750;9.078;2022-11-15T16:17:23;11.40;99.90
2300;DHT22;1158;48.750;9.078;2022-11-15T16:19:51;11.30;99.90
2300;DHT22;1158;48.750;9.078;2022-11-15T16:22:18;11.40;99.90
2300;DHT22;1158;48.750;9.078;2022-11-15T16:24:45;11.40;99.90
2300;DHT22;1158;48.750;9.078;2022-11-15T16:27:14;11.40;99.90
2300;DHT22;1158;48.750;9.078;2022-11-15T16:29:41;11.40;99.90
2300;DHT22;1158;48.750;9.078;2022-11-15T16:32:07;11.30;99.90
2300;DHT22;1158;48.750;9.078;2022-11-15T16:34:34;11.30;99.90
2300;DHT22;1158;48.750;9.078;2022-11-15T16:37:03;11.30;99.90
2300;DHT22;1158;48.750;9.078;2022-11-15T16:39:30;11.30;99.90
2300;DHT22;1158;48.750;9.078;2022-11-15T16:41:58;11.20;99.90
2300;DHT22;1158;48.750;9.078;2022-11-15T16:44:25;11.20;99.90